Time;durP1;ratioP1;P1;durP2;ratioP2;P2;SDS_P1;SDS_P2;PMS_P1;PMS_P2;Temp;Humidity;BMP_temperature;BMP_pressure;BME280_temperature;BME280_humidity;BME280_pressure;Samples;Min_cycle;Max_cycle;Signal;HPM_P1;HPM_P2
2021/03/31 00:00:59;;;;;;;11.93;7.80;;;6.70;79.80;;;;;;5033740;28;20171;-83
2021/03/31 00:03:33;;;;;;;9.80;7.50;;;6.70;79.30;;;;;;5033871;28;20248;-83
2021/03/31 00:06:08;;;;;;;7.60;6.23;;;6.60;78.90;;;;;;5033460;28;20187;-83
2021/03/31 00:08:34;;;;;;;9.33;5.77;;;6.50;79.00;;;;;;5033946;28;20212;-83
2021/03/31 00:11:08;;;;;;;6.83;5.60;;;6.40;79.20;;;;;;5015982;28;20271;-84
2021/03/31 00:13:42;;;;;;;8.50;6.47;;;6.30;79.50;;;;;;5033738;28;20191;-84
2021/03/31 00:16:08;;;;;;;13.27;6.63;;;6.30;79.20;;;;;;5033296;28;20191;-83
2021/03/31 00:18:42;;;;;;;13.40;6.30;;;6.20;79.20;;;;;;5033457;28;20172;-83
2021/03/31 00:21:12;;;;;;;10.07;6.27;;;6.10;79.10;;;;;;5033778;28;20157;-83
2021/03/31 00:23:48;;;;;;;9.83;6.20;;;6.10;79.00;;;;;;5015550;28;20179;-83
2021/03/31 00:26:21;;;;;;;7.47;5.60;;;6.20;78.70;;;;;;5015596;28;20196;-83
2021/03/31 00:28:57;;;;;;;8.37;6.47;;;6.30;78.30;;;;;;5033267;28;20674;-83
2021/03/31 00:31:34;;;;;;;12.67;8.17;;;6.30;78.00;;;;;;5033364;28;20713;-83
2021/03/31 00:34:08;;;;;;;13.57;8.53;;;6.30;78.10;;;;;;5033444;28;20196;-83
2021/03/31 00:36:40;;;;;;;66.40;13.37;;;6.30;78.30;;;;;;5033084;28;20546;-83
2021/03/31 00:39:11;;;;;;;100.97;10.67;;;6.30;81.00;;;;;;5033190;28;20739;-83
2021/03/31 00:41:42;;;;;;;167.37;13.10;;;6.10;84.90;;;;;;5032334;28;20697;-83
2021/03/31 00:44:08;;;;;;;325.90;17.90;;;5.90;86.20;;;;;;5033183;28;20233;-83
2021/03/31 00:46:34;;;;;;;223.63;12.30;;;5.90;85.90;;;;;;5033203;28;20201;-83
2021/03/31 00:49:01;;;;;;;65.07;8.33;;;5.80;85.90;;;;;;5015351;28;20188;-83
2021/03/31 00:51:32;;;;;;;63.07;7.10;;;5.80;86.10;;;;;;5033074;28;20170;-84
2021/03/31 00:54:03;;;;;;;180.33;13.20;;;5.60;86.20;;;;;;5033181;28;20554;-83
2021/03/31 00:56:33;;;;;;;52.40;8.83;;;5.50;86.80;;;;;;5032925;28;20683;-83
2021/03/31 00:59:08;;;;;;;24.83;9.47;;;5.60;87.20;;;;;;5015161;28;20174;-83
2021/03/31 01:01:36;;;;;;;44.67;9.17;;;5.70;87.30;;;;;;5033231;28;20161;-83
2021/03/31 01:04:10;;;;;;;37.77;8.83;;;5.80;87.40;;;;;;5032887;28;20213;-82
2021/03/31 01:06:42;;;;;;;24.37;9.43;;;5.80;87.40;;;;;;5032789;28;20200;-83
2021/03/31 01:09:14;;;;;;;8.03;7.00;;;5.90;88.60;;;;;;5033000;28;20569;-83
2021/03/31 01:12:14;;;;;;;6.90;6.20;;;5.90;88.20;;;;;;5015094;28;20223;-83
2021/03/31 01:14:59;;;;;;;7.90;7.10;;;5.80;87.10;;;;;;5032915;28;20281;-83
2021/03/31 01:17:49;;;;;;;11.00;8.73;;;5.50;86.30;;;;;;5015065;28;20200;-83
2021/03/31 01:20:52;;;;;;;12.40;9.03;;;5.50;86.20;;;;;;5032808;28;20177;-83
2021/03/31 01:23:54;;;;;;;12.23;9.77;;;5.40;86.60;;;;;;5032870;28;20633;-83
2021/03/31 01:27:02;;;;;;;13.00;10.63;;;5.40;87.10;;;;;;5032932;28;20745;-83
2021/03/31 01:30:05;;;;;;;13.83;10.67;;;5.50;87.70;;;;;;5012615;28;20184;-83
2021/03/31 01:32:46;;;;;;;13.67;10.27;;;5.50;87.80;;;;;;5032743;28;20213;-83
2021/03/31 01:35:15;;;;;;;19.27;10.33;;;5.40;87.80;;;;;;5032747;28;20661;-83
2021/03/31 01:37:54;;;;;;;14.37;11.07;;;5.30;87.70;;;;;;5032467;28;20569;-83
2021/03/31 01:40:27;;;;;;;11.97;10.17;;;5.30;87.80;;;;;;5032630;28;20729;-83
2021/03/31 01:43:06;;;;;;;13.47;9.73;;;5.10;88.10;;;;;;5032627;28;20157;-83
2021/03/31 01:45:38;;;;;;;171.40;19.20;;;4.90;88.20;;;;;;5032675;28;20165;-83
2021/03/31 01:48:19;;;;;;;168.87;13.83;;;4.60;88.60;;;;;;5032644;28;20532;-83
2021/03/31 01:51:01;;;;;;;129.67;14.70;;;4.30;89.10;;;;;;5032444;28;20169;-83
2021/03/31 01:53:28;;;;;;;38.17;13.83;;;4.20;89.60;;;;;;5035190;28;20184;-83
2021/03/31 01:55:56;;;;;;;16.70;12.87;;;4.20;89.60;;;;;;5017924;28;20656;-83
2021/03/31 01:58:30;;;;;;;19.57;11.43;;;4.10;89.30;;;;;;5036075;28;20176;-82
2021/03/31 02:01:01;;;;;;;14.57;10.93;;;4.20;89.40;;;;;;5036248;28;20518;-83
2021/03/31 02:03:34;;;;;;;12.23;9.13;;;4.40;89.40;;;;;;5035880;28;20173;-82
2021/03/31 02:06:04;;;;;;;10.30;8.83;;;4.50;89.10;;;;;;5017800;28;20177;-83
2021/03/31 02:08:39;;;;;;;11.10;8.87;;;4.60;88.70;;;;;;5018001;28;20177;-82
2021/03/31 02:11:11;;;;;;;14.97;8.70;;;4.70;88.00;;;;;;5035725;28;20247;-83
2021/03/31 02:13:47;;;;;;;9.73;7.43;;;4.80;87.60;;;;;;5017682;28;20193;-83
2021/03/31 02:16:14;;;;;;;15.70;7.43;;;4.80;87.10;;;;;;5035703;28;20188;-82
2021/03/31 02:18:45;;;;;;;11.73;9.37;;;4.80;86.50;;;;;;5035514;28;20168;-82
2021/03/31 02:21:20;;;;;;;45.37;8.10;;;4.70;86.70;;;;;;5018149;28;20613;-82
2021/03/31 02:23:54;;;;;;;85.23;9.07;;;4.50;87.10;;;;;;5018487;28;20180;-83
2021/03/31 02:26:29;;;;;;;133.87;10.30;;;4.30;87.50;;;;;;5017479;28;20196;-83
2021/03/31 02:28:55;;;;;;;156.43;14.03;;;3.80;88.00;;;;;;5035316;28;20172;-82
2021/03/31 02:31:23;;;;;;;69.97;9.70;;;3.60;88.70;;;;;;5017560;28;20189;-83
2021/03/31 02:34:02;;;;;;;66.80;9.40;;;3.30;89.20;;;;;;5035421;28;20589;-83
2021/03/31 02:36:38;;;;;;;76.87;11.10;;;3.30;89.60;;;;;;5035159;28;20194;-82
2021/03/31 02:39:12;;;;;;;87.90;11.30;;;3.20;90.00;;;;;;5035178;28;20199;-83
2021/03/31 02:41:50;;;;;;;94.43;10.00;;;3.30;90.20;;;;;;5035176;28;20633;-82
2021/03/31 02:44:24;;;;;;;62.63;11.30;;;3.10;90.40;;;;;;5035169;28;20161;-83
2021/03/31 02:46:59;;;;;;;63.20;13.37;;;2.90;90.80;;;;;;5035033;28;20198;-82
2021/03/31 02:49:28;;;;;;;18.70;12.33;;;2.90;91.00;;;;;;5017256;28;20174;-83
2021/03/31 02:52:00;;;;;;;86.17;13.00;;;3.10;91.00;;;;;;5035069;28;20183;-82
2021/03/31 02:54:28;;;;;;;158.40;17.17;;;3.30;91.00;;;;;;5034803;28;20242;-82
2021/03/31 02:57:01;;;;;;;190.63;16.30;;;3.50;91.00;;;;;;5034956;28;20257;-82
2021/03/31 02:59:34;;;;;;;266.00;18.43;;;3.60;90.90;;;;;;5034795;28;20171;-82
2021/03/31 03:02:00;;;;;;;62.70;13.30;;;3.70;91.00;;;;;;5034827;28;20538;-82
2021/03/31 03:04:30;;;;;;;13.90;10.80;;;3.80;90.90;;;;;;5033929;28;20179;-83
2021/03/31 03:07:02;;;;;;;16.23;12.30;;;3.80;90.70;;;;;;5034730;28;20203;-82
2021/03/31 03:09:35;;;;;;;11.23;9.73;;;4.00;90.40;;;;;;5016818;28;20225;-82
2021/03/31 03:12:06;;;;;;;15.93;10.43;;;4.10;90.00;;;;;;5034593;28;20176;-83
2021/03/31 03:14:43;;;;;;;12.37;10.00;;;4.10;89.80;;;;;;5034375;28;20227;-82
2021/03/31 03:17:09;;;;;;;11.13;8.60;;;4.20;89.40;;;;;;5034518;28;20269;-83
2021/03/31 03:19:41;;;;;;;11.20;8.43;;;4.20;89.10;;;;;;5034930;28;20172;-82
2021/03/31 03:22:14;;;;;;;9.53;8.50;;;4.20;88.80;;;;;;5034322;28;20165;-82
2021/03/31 03:24:52;;;;;;;11.10;8.43;;;4.10;88.50;;;;;;5034384;28;20164;-82
2021/03/31 03:27:27;;;;;;;13.13;8.50;;;4.10;88.20;;;;;;5034772;28;20200;-82
2021/03/31 03:30:02;;;;;;;10.53;7.90;;;4.10;88.00;;;;;;5016486;28;20682;-83
2021/03/31 03:32:41;;;;;;;10.63;7.80;;;4.10;87.70;;;;;;5016492;28;20578;-83
2021/03/31 03:35:14;;;;;;;12.17;8.30;;;4.10;87.30;;;;;;5034105;28;20243;-82
2021/03/31 03:37:47;;;;;;;13.70;9.20;;;4.00;87.10;;;;;;5034091;28;20657;-83
2021/03/31 03:40:27;;;;;;;12.63;9.57;;;3.90;87.10;;;;;;5034082;28;20584;-82
2021/03/31 03:43:00;;;;;;;115.43;11.03;;;3.70;87.30;;;;;;5016185;28;20183;-82
2021/03/31 03:45:31;;;;;;;106.10;11.50;;;3.40;87.60;;;;;;5016214;28;20211;-82
2021/03/31 03:48:05;;;;;;;12.90;9.67;;;3.10;88.20;;;;;;5034007;28;20189;-82
2021/03/31 03:50:38;;;;;;;9.57;8.67;;;3.00;88.80;;;;;;5033857;28;20177;-82
2021/03/31 03:53:12;;;;;;;66.87;8.27;;;3.00;89.00;;;;;;5033698;28;20163;-83
2021/03/31 03:55:44;;;;;;;13.43;7.67;;;3.10;89.20;;;;;;5034372;28;20170;-83
2021/03/31 03:58:17;;;;;;;7.93;6.90;;;3.00;89.50;;;;;;5033564;28;20187;-83
2021/03/31 04:00:47;;;;;;;11.40;7.60;;;2.90;89.40;;;;;;5034362;28;20167;-82
2021/03/31 04:03:23;;;;;;;7.90;7.17;;;2.90;89.40;;;;;;5033693;28;20180;-82
2021/03/31 04:05:58;;;;;;;8.40;7.43;;;3.00;89.40;;;;;;5033797;28;20174;-83
2021/03/31 04:08:24;;;;;;;11.37;8.63;;;3.00;89.20;;;;;;5033945;28;20609;-82
2021/03/31 04:10:57;;;;;;;14.57;10.83;;;3.00;89.20;;;;;;5033527;28;20175;-82
2021/03/31 04:13:34;;;;;;;10.03;8.57;;;3.00;89.00;;;;;;5033772;28;20191;-82
2021/03/31 04:16:08;;;;;;;10.23;9.07;;;3.10;89.10;;;;;;5033308;28;20669;-82
2021/03/31 04:18:45;;;;;;;7.50;6.77;;;3.20;88.90;;;;;;5033419;28;20166;-82
2021/03/31 04:21:21;;;;;;;12.63;9.50;;;3.10;88.60;;;;;;5015744;28;20185;-83
2021/03/31 04:23:49;;;;;;;17.13;12.07;;;3.10;88.30;;;;;;5016230;28;20505;-82
2021/03/31 04:26:24;;;;;;;13.67;11.00;;;3.00;88.70;;;;;;5033318;28;20194;-83
2021/03/31 04:28:53;;;;;;;14.03;10.43;;;2.90;88.90;;;;;;5015590;28;20216;-83
2021/03/31 04:31:33;;;;;;;15.47;11.83;;;3.00;88.90;;;;;;5033330;28;20650;-82
2021/03/31 04:34:09;;;;;;;14.30;12.27;;;3.00;89.10;;;;;;5033627;28;20200;-82
2021/03/31 04:36:43;;;;;;;60.33;15.90;;;2.90;89.20;;;;;;5033254;28;20193;-83
2021/03/31 04:39:15;;;;;;;101.30;16.43;;;2.80;89.20;;;;;;5033226;28;20631;-82
2021/03/31 04:41:47;;;;;;;85.83;15.73;;;2.80;89.50;;;;;;5015289;28;20174;-82
2021/03/31 04:44:28;;;;;;;119.23;15.63;;;2.60;89.70;;;;;;5015375;28;20700;-82
2021/03/31 04:47:00;;;;;;;74.73;16.93;;;2.30;90.10;;;;;;5033352;28;20226;-82
2021/03/31 04:49:27;;;;;;;53.53;17.57;;;2.30;90.50;;;;;;5033015;28;20522;-82
2021/03/31 04:52:00;;;;;;;87.90;18.57;;;2.30;90.70;;;;;;5033108;28;20180;-82
2021/03/31 04:54:26;;;;;;;110.53;20.53;;;2.40;90.80;;;;;;5033089;28;20723;-82
2021/03/31 04:57:00;;;;;;;108.33;15.43;;;2.40;90.90;;;;;;5033090;28;20205;-83
2021/03/31 04:59:36;;;;;;;57.33;15.37;;;2.30;91.00;;;;;;5015165;28;20216;-83
2021/03/31 05:02:09;;;;;;;91.87;16.40;;;2.20;91.10;;;;;;5032937;28;20605;-82
2021/03/31 05:04:43;;;;;;;86.97;15.00;;;2.20;91.20;;;;;;5032869;28;20165;-82
2021/03/31 05:07:14;;;;;;;29.30;14.50;;;2.10;91.20;;;;;;5033291;28;20344;-82
2021/03/31 05:09:47;;;;;;;33.67;14.47;;;2.00;91.30;;;;;;5014930;28;20549;-82
2021/03/31 05:12:24;;;;;;;40.97;17.47;;;2.00;91.50;;;;;;5032793;28;20177;-82
2021/03/31 05:14:56;;;;;;;30.33;16.77;;;1.90;91.60;;;;;;5032768;28;20227;-82
2021/03/31 05:17:23;;;;;;;26.20;18.00;;;1.90;91.70;;;;;;5015231;28;20684;-82
2021/03/31 05:19:59;;;;;;;27.40;19.60;;;2.00;91.90;;;;;;5032730;28;20171;-82
2021/03/31 05:22:33;;;;;;;26.53;19.43;;;2.10;92.00;;;;;;5032947;28;20216;-82
2021/03/31 05:25:04;;;;;;;24.47;18.53;;;2.20;92.20;;;;;;5015136;28;20265;-82
2021/03/31 05:27:39;;;;;;;28.97;19.27;;;2.40;92.30;;;;;;5033994;28;20193;-83
2021/03/31 05:30:10;;;;;;;20.90;16.07;;;2.70;92.50;;;;;;5036531;28;20166;-82
2021/03/31 05:32:37;;;;;;;16.30;14.00;;;2.80;92.50;;;;;;5036369;28;20163;-82
2021/03/31 05:35:13;;;;;;;22.53;15.43;;;2.80;92.30;;;;;;5036360;28;20201;-82
2021/03/31 05:37:51;;;;;;;12.80;11.47;;;2.90;92.20;;;;;;5018514;28;20196;-83
2021/03/31 05:40:19;;;;;;;23.63;13.77;;;3.00;92.00;;;;;;5036420;28;20167;-83
2021/03/31 05:42:52;;;;;;;17.03;13.37;;;3.00;91.80;;;;;;5018521;28;20176;-82
2021/03/31 05:45:23;;;;;;;19.33;14.77;;;3.10;91.60;;;;;;5036581;28;20172;-82
2021/03/31 05:47:53;;;;;;;18.47;13.23;;;3.30;91.50;;;;;;5036194;28;20336;-82
2021/03/31 05:50:32;;;;;;;22.73;15.43;;;3.40;91.50;;;;;;5018294;28;20221;-83
2021/03/31 05:53:00;;;;;;;24.33;16.47;;;3.60;91.40;;;;;;5036329;28;20169;-82
2021/03/31 05:55:33;;;;;;;26.50;15.20;;;3.80;91.50;;;;;;5036023;28;20703;-83
2021/03/31 05:58:09;;;;;;;23.97;16.80;;;3.90;91.50;;;;;;5018161;28;20222;-82
2021/03/31 06:00:37;;;;;;;36.10;19.10;;;4.00;91.70;;;;;;5035976;28;20566;-83
2021/03/31 06:03:09;;;;;;;44.50;18.67;;;4.20;91.90;;;;;;5035859;28;20178;-82
2021/03/31 06:05:43;;;;;;;32.57;19.20;;;4.30;92.10;;;;;;5036046;28;20156;-83
2021/03/31 06:08:21;;;;;;;29.80;16.93;;;4.30;92.20;;;;;;5018046;28;20207;-83
2021/03/31 06:11:02;;;;;;;30.37;17.80;;;4.50;92.30;;;;;;5036212;28;20250;-82
2021/03/31 06:14:05;;;;;;;25.03;17.47;;;4.40;92.10;;;;;;5035669;28;20742;-83
2021/03/31 06:16:43;;;;;;;30.17;18.63;;;4.30;91.80;;;;;;4955751;28;20198;-82
2021/03/31 06:19:23;;;;;;;36.77;20.10;;;4.30;91.80;;;;;;5026661;28;20185;-83
2021/03/31 06:25:02;;;;;;;30.70;20.63;;;4.60;92.20;;;;;;5035862;28;20623;-82
2021/03/31 06:27:34;;;;;;;39.67;21.90;;;4.70;92.50;;;;;;5035368;28;20201;-83
2021/03/31 06:30:06;;;;;;;32.73;21.37;;;4.80;92.50;;;;;;5017566;28;20177;-83
2021/03/31 06:32:44;;;;;;;35.90;22.57;;;4.90;92.60;;;;;;5017665;28;20181;-82
2021/03/31 06:35:27;;;;;;;41.23;24.83;;;5.00;92.60;;;;;;5035301;28;20608;-83
2021/03/31 06:38:10;;;;;;;44.47;24.93;;;5.20;92.80;;;;;;5035041;28;20571;-83
2021/03/31 06:40:47;;;;;;;35.37;24.37;;;5.30;92.90;;;;;;5035054;28;20188;-83
2021/03/31 06:43:36;;;;;;;44.73;25.40;;;5.40;93.00;;;;;;5035353;28;20239;-83
2021/03/31 06:46:24;;;;;;;43.97;26.63;;;5.70;93.10;;;;;;5034960;28;20618;-83
2021/03/31 06:48:54;;;;;;;44.47;26.43;;;5.90;93.00;;;;;;5017742;28;20513;-83
2021/03/31 06:51:30;;;;;;;46.77;28.27;;;6.10;93.00;;;;;;5017174;28;20223;-83
2021/03/31 06:53:56;;;;;;;51.60;29.47;;;6.30;92.80;;;;;;5034787;28;20668;-83
2021/03/31 06:56:30;;;;;;;48.13;27.53;;;6.60;92.50;;;;;;5034741;28;20646;-83
2021/03/31 06:59:01;;;;;;;38.57;25.50;;;6.90;92.20;;;;;;5034778;28;20217;-83
2021/03/31 07:01:36;;;;;;;44.97;24.57;;;7.10;91.40;;;;;;5035416;28;20217;-83
2021/03/31 07:04:06;;;;;;;39.67;24.80;;;7.30;91.30;;;;;;5034831;28;20277;-84
2021/03/31 07:06:42;;;;;;;41.30;24.00;;;7.40;90.50;;;;;;5034711;28;20206;-84
2021/03/31 07:09:23;;;;;;;37.13;23.80;;;7.60;90.40;;;;;;5034952;28;20166;-83
2021/03/31 07:11:54;;;;;;;37.13;23.30;;;7.80;90.40;;;;;;5034718;28;20207;-83
2021/03/31 07:14:27;;;;;;;38.47;23.87;;;8.00;90.50;;;;;;5016647;28;20519;-83
2021/03/31 07:17:03;;;;;;;36.60;24.63;;;8.10;89.60;;;;;;5034333;28;20672;-83
2021/03/31 07:19:38;;;;;;;39.23;23.43;;;8.30;88.50;;;;;;5016665;28;20193;-83
2021/03/31 07:22:07;;;;;;;39.23;22.67;;;8.50;86.80;;;;;;5034364;28;20219;-83
2021/03/31 07:24:37;;;;;;;32.87;21.50;;;8.60;86.60;;;;;;5016842;28;20218;-83
2021/03/31 07:27:11;;;;;;;36.07;21.53;;;8.80;85.40;;;;;;5034803;28;20199;-83
2021/03/31 07:32:52;;;;;;;36.53;22.17;;;9.10;85.60;;;;;;5034485;28;20163;-83
2021/03/31 07:35:19;;;;;;;37.07;21.20;;;9.20;85.70;;;;;;5016179;28;20574;-83
2021/03/31 07:37:49;;;;;;;46.00;21.40;;;9.30;85.60;;;;;;5016309;28;20199;-84
2021/03/31 07:40:24;;;;;;;32.17;22.70;;;9.50;85.50;;;;;;5016366;28;20169;-83
2021/03/31 07:43:03;;;;;;;37.80;23.87;;;9.60;84.60;;;;;;5033998;28;20652;-83
2021/03/31 07:45:44;;;;;;;33.73;23.30;;;9.80;84.80;;;;;;5034042;28;20161;-83
2021/03/31 07:48:12;;;;;;;34.30;23.47;;;10.10;84.30;;;;;;5034281;28;20331;-83
2021/03/31 07:50:41;;;;;;;32.87;23.77;;;10.30;83.30;;;;;;5033517;28;20187;-83
2021/03/31 07:53:13;;;;;;;33.03;23.57;;;10.50;80.80;;;;;;5016012;28;20173;-83
2021/03/31 07:55:47;;;;;;;33.00;22.63;;;10.70;78.40;;;;;;5033758;28;20170;-83
2021/03/31 07:58:17;;;;;;;27.27;21.60;;;10.80;78.00;;;;;;5033556;28;20267;-83
2021/03/31 08:00:51;;;;;;;33.47;22.60;;;10.80;76.70;;;;;;5015916;28;20172;-83
2021/03/31 08:03:29;;;;;;;31.00;20.73;;;10.90;75.30;;;;;;5016475;28;20161;-83
2021/03/31 08:06:17;;;;;;;31.23;21.33;;;11.00;73.90;;;;;;5033590;28;20153;-83
2021/03/31 08:08:49;;;;;;;31.80;22.53;;;11.10;74.50;;;;;;5033644;28;20161;-83
2021/03/31 08:11:47;;;;;;;28.77;20.90;;;11.30;72.40;;;;;;5033530;28;20169;-83
2021/03/31 08:14:19;;;;;;;32.40;22.03;;;11.40;72.00;;;;;;5015943;28;20640;-83
2021/03/31 08:16:54;;;;;;;31.10;22.20;;;11.50;73.50;;;;;;5033358;28;20200;-83
2021/03/31 08:19:29;;;;;;;31.27;22.47;;;11.50;75.10;;;;;;5033529;28;20176;-83
2021/03/31 08:22:15;;;;;;;31.67;22.07;;;11.60;72.90;;;;;;5015667;28;20225;-83
2021/03/31 08:24:51;;;;;;;26.93;19.53;;;11.80;72.40;;;;;;5015691;28;20175;-82
2021/03/31 08:27:24;;;;;;;30.30;20.60;;;12.10;69.50;;;;;;5015505;28;20196;-83
2021/03/31 08:30:00;;;;;;;32.57;21.10;;;12.10;70.60;;;;;;5033206;28;20180;-83
2021/03/31 08:32:39;;;;;;;30.60;21.13;;;12.40;68.60;;;;;;5033680;28;20161;-83
2021/03/31 08:35:13;;;;;;;29.50;19.73;;;12.70;66.00;;;;;;5015403;28;20200;-83
2021/03/31 08:37:45;;;;;;;26.63;19.77;;;12.90;66.10;;;;;;5033108;28;20247;-83
2021/03/31 08:40:19;;;;;;;31.80;18.60;;;12.90;63.90;;;;;;5015406;28;20266;-83
2021/03/31 08:42:57;;;;;;;28.87;19.67;;;13.00;62.20;;;;;;5033027;28;20208;-83
2021/03/31 08:45:30;;;;;;;32.73;19.60;;;13.20;61.40;;;;;;5015352;28;20696;-83
2021/03/31 08:48:02;;;;;;;27.27;17.93;;;13.30;59.50;;;;;;5032997;28;20631;-83
2021/03/31 08:50:38;;;;;;;27.50;19.03;;;13.60;58.50;;;;;;5033052;28;20173;-83
2021/03/31 08:53:11;;;;;;;28.93;18.83;;;13.80;57.10;;;;;;5033014;28;20168;-83
2021/03/31 08:55:44;;;;;;;31.67;19.80;;;13.80;55.40;;;;;;5015296;28;20169;-83
2021/03/31 08:58:20;;;;;;;39.70;24.50;;;14.00;54.60;;;;;;5015456;28;20197;-83
2021/03/31 09:00:54;;;;;;;28.93;18.03;;;14.30;54.30;;;;;;5015224;28;20180;-83
2021/03/31 09:03:33;;;;;;;28.93;18.37;;;14.30;53.40;;;;;;5035901;28;20682;-83
2021/03/31 09:06:11;;;;;;;26.50;17.53;;;14.40;52.50;;;;;;5019094;28;20180;-83
2021/03/31 09:08:47;;;;;;;28.07;17.87;;;14.50;52.80;;;;;;5037120;28;20217;-83
2021/03/31 09:11:20;;;;;;;37.00;17.60;;;14.70;53.00;;;;;;5036993;28;20279;-83
2021/03/31 09:13:54;;;;;;;24.43;17.53;;;15.00;49.70;;;;;;5018879;28;20668;-83
2021/03/31 09:16:33;;;;;;;30.77;18.83;;;15.10;50.60;;;;;;5036980;28;20184;-83
2021/03/31 09:19:09;;;;;;;30.53;17.77;;;15.20;51.60;;;;;;5037031;28;20157;-83
2021/03/31 09:21:42;;;;;;;36.27;18.60;;;15.40;48.00;;;;;;5036642;28;20181;-82
2021/03/31 09:24:15;;;;;;;26.70;18.33;;;15.60;45.80;;;;;;5036702;28;20161;-83
2021/03/31 09:26:59;;;;;;;26.63;18.50;;;15.70;49.30;;;;;;5036875;28;20192;-83
2021/03/31 09:29:31;;;;;;;27.30;18.40;;;15.80;49.40;;;;;;5036558;28;20195;-83
2021/03/31 09:32:03;;;;;;;28.87;18.77;;;15.90;49.30;;;;;;5018711;28;20200;-83
2021/03/31 09:34:36;;;;;;;26.93;18.80;;;16.00;46.80;;;;;;5018574;28;20291;-83
2021/03/31 09:37:12;;;;;;;35.20;19.97;;;16.30;46.50;;;;;;5018580;28;20197;-82
2021/03/31 09:39:58;;;;;;;29.53;18.30;;;16.30;49.40;;;;;;5018713;28;20665;-83
2021/03/31 09:42:39;;;;;;;28.48;19.45;;;16.50;48.10;;;;;;5036983;28;20565;-83
2021/03/31 09:45:09;;;;;;;30.45;20.45;;;16.70;48.00;;;;;;5018701;28;20181;-82
2021/03/31 09:47:37;;;;;;;30.05;18.58;;;16.80;47.10;;;;;;5036825;28;20189;-83
2021/03/31 09:50:14;;;;;;;26.95;18.88;;;16.70;45.90;;;;;;5018466;28;20177;-83
2021/03/31 09:52:40;;;;;;;29.33;18.70;;;16.90;44.30;;;;;;5036129;28;20268;-83
2021/03/31 09:55:13;;;;;;;34.65;19.55;;;16.90;45.20;;;;;;5036045;28;20275;-83
2021/03/31 09:57:50;;;;;;;33.30;21.25;;;17.00;45.20;;;;;;5018301;28;20306;-83
2021/03/31 10:00:23;;;;;;;34.95;20.95;;;17.20;45.40;;;;;;5018176;28;20259;-83
2021/03/31 10:02:58;;;;;;;33.17;20.08;;;17.40;45.90;;;;;;5018335;28;20226;-83
2021/03/31 10:05:33;;;;;;;36.30;20.80;;;17.50;45.50;;;;;;5035940;28;20173;-83
2021/03/31 10:08:09;;;;;;;29.02;20.40;;;17.80;44.20;;;;;;5018230;28;20684;-83
2021/03/31 10:10:57;;;;;;;30.63;19.90;;;17.90;45.50;;;;;;5035982;28;20172;-83
2021/03/31 10:13:36;;;;;;;29.50;20.45;;;18.00;44.30;;;;;;5035941;28;20173;-86
2021/03/31 10:16:12;;;;;;;31.52;20.55;;;18.20;45.70;;;;;;5017874;28;20203;-85
2021/03/31 10:18:45;;;;;;;31.58;20.48;;;18.30;44.90;;;;;;5035673;28;20169;-85
2021/03/31 10:21:30;;;;;;;32.95;19.90;;;18.50;44.00;;;;;;5017871;28;20187;-86
2021/03/31 10:23:56;;;;;;;35.00;20.52;;;18.60;43.50;;;;;;5035626;28;20172;-85
2021/03/31 10:26:24;;;;;;;31.85;19.90;;;18.70;44.20;;;;;;5035416;28;20205;-86
2021/03/31 10:28:52;;;;;;;36.17;21.25;;;18.90;45.50;;;;;;5035552;28;20222;-86
2021/03/31 10:31:18;;;;;;;31.23;19.92;;;19.00;43.90;;;;;;5035473;28;20173;-86
2021/03/31 10:33:45;;;;;;;30.90;19.85;;;19.00;45.30;;;;;;5035568;28;20219;-86
2021/03/31 10:36:12;;;;;;;24.90;18.60;;;19.00;41.10;;;;;;5035299;28;20279;-86
2021/03/31 10:38:55;;;;;;;32.17;19.88;;;19.10;43.70;;;;;;5017555;28;20177;-86
2021/03/31 10:52:00;;;;;;;31.27;19.55;;;19.90;41.80;;;;;;5035316;28;20161;-85
2021/03/31 10:54:26;;;;;;;31.15;19.05;;;19.80;43.10;;;;;;5017192;28;20247;-86
2021/03/31 10:56:54;;;;;;;30.58;18.40;;;19.90;42.00;;;;;;5016892;28;20265;-86
2021/03/31 10:59:21;;;;;;;30.45;17.83;;;20.20;40.70;;;;;;5034845;28;20522;-86
2021/03/31 11:01:47;;;;;;;26.20;18.13;;;20.30;37.50;;;;;;5017100;28;20199;-86
2021/03/31 11:04:13;;;;;;;36.97;18.90;;;20.30;37.50;;;;;;5034782;28;20557;-86
2021/03/31 11:06:50;;;;;;;27.75;18.60;;;20.40;38.40;;;;;;5034645;28;20242;-86
2021/03/31 11:09:28;;;;;;;31.92;18.90;;;20.50;39.60;;;;;;5034598;28;20176;-86
2021/03/31 11:12:00;;;;;;;28.48;18.40;;;20.50;37.70;;;;;;5034680;28;20165;-86
2021/03/31 11:14:34;;;;;;;27.67;17.20;;;20.70;37.00;;;;;;5034497;28;20715;-86
2021/03/31 11:17:18;;;;;;;31.05;20.10;;;20.70;36.30;;;;;;5033787;28;20440;-87
2021/03/31 11:25:49;;;;;;;30.48;18.63;;;21.40;36.00;;;;;;5033722;28;20724;-87
2021/03/31 11:28:21;;;;;;;40.83;23.42;;;21.40;35.90;;;;;;5033382;28;20408;-87
2021/03/31 11:30:56;;;;;;;31.40;19.80;;;21.70;39.00;;;;;;5034460;28;20185;-88
2021/03/31 11:33:36;;;;;;;29.27;20.15;;;21.80;36.60;;;;;;5017099;28;20586;-88
2021/03/31 11:36:09;;;;;;;35.80;19.08;;;21.80;37.20;;;;;;5034187;28;20241;-88
2021/03/31 11:38:44;;;;;;;25.77;18.15;;;22.10;36.30;;;;;;5016378;28;20180;-88
2021/03/31 11:41:20;;;;;;;31.23;18.63;;;22.20;38.60;;;;;;5034124;28;20206;-88
2021/03/31 11:43:54;;;;;;;26.63;18.85;;;22.40;36.10;;;;;;5034403;28;20192;-88
2021/03/31 11:46:29;;;;;;;27.17;18.20;;;22.80;35.40;;;;;;5033957;28;20543;-88
2021/03/31 11:48:59;;;;;;;30.25;19.60;;;22.70;35.60;;;;;;5033984;28;20242;-88
2021/03/31 11:51:36;;;;;;;29.27;18.98;;;22.40;34.10;;;;;;5016230;28;20183;-87
2021/03/31 11:54:08;;;;;;;29.98;19.10;;;22.00;32.60;;;;;;5033807;28;20215;-87
2021/03/31 11:56:44;;;;;;;34.42;19.75;;;21.80;34.10;;;;;;5015988;28;20244;-88
2021/03/31 11:59:10;;;;;;;28.35;19.58;;;22.00;34.70;;;;;;5033859;28;20168;-88
2021/03/31 12:01:48;;;;;;;30.00;17.45;;;22.30;32.90;;;;;;5016173;28;20188;-88
2021/03/31 12:04:23;;;;;;;31.10;19.10;;;22.70;33.70;;;;;;5033735;28;20165;-88
2021/03/31 12:07:02;;;;;;;30.13;18.10;;;23.00;31.40;;;;;;5033712;28;20200;-85
2021/03/31 12:09:32;;;;;;;25.33;17.38;;;22.80;30.30;;;;;;5015920;28;20177;-86
2021/03/31 12:12:04;;;;;;;28.80;18.63;;;22.80;31.10;;;;;;5016021;28;20216;-85
2021/03/31 12:14:30;;;;;;;27.17;17.70;;;23.10;32.50;;;;;;5015906;28;20311;-85
2021/03/31 12:16:58;;;;;;;30.95;17.90;;;23.40;31.20;;;;;;5033500;28;20199;-85
2021/03/31 12:19:31;;;;;;;31.23;18.92;;;23.70;31.60;;;;;;5015843;28;20203;-86
2021/03/31 12:22:04;;;;;;;33.38;19.33;;;23.60;31.50;;;;;;5015696;28;20177;-86
2021/03/31 12:24:38;;;;;;;31.42;19.30;;;23.70;30.70;;;;;;5016147;28;20184;-87
2021/03/31 12:27:12;;;;;;;32.53;20.60;;;23.60;31.90;;;;;;5015528;28;20199;-86
2021/03/31 12:29:44;;;;;;;30.83;19.83;;;23.70;29.40;;;;;;5015833;28;20268;-86
2021/03/31 12:32:18;;;;;;;32.25;18.85;;;23.20;28.80;;;;;;5033341;28;20177;-85
2021/03/31 12:34:52;;;;;;;30.05;19.52;;;23.10;33.00;;;;;;5015569;28;20200;-86
2021/03/31 12:37:24;;;;;;;29.30;19.77;;;23.30;33.80;;;;;;5015519;28;20192;-86
2021/03/31 12:39:51;;;;;;;28.60;19.65;;;23.50;34.40;;;;;;5015800;28;20184;-85
2021/03/31 12:42:17;;;;;;;27.23;19.58;;;23.60;31.50;;;;;;5015993;28;20184;-86
2021/03/31 12:44:46;;;;;;;30.95;19.88;;;23.60;33.20;;;;;;5015473;28;20211;-84
2021/03/31 12:47:22;;;;;;;33.25;19.70;;;23.50;32.10;;;;;;5033128;28;20197;-85
2021/03/31 12:49:51;;;;;;;35.17;20.67;;;23.40;31.80;;;;;;5016392;28;20265;-85
2021/03/31 12:52:30;;;;;;;31.27;18.60;;;23.10;32.90;;;;;;5015467;28;20180;-85
2021/03/31 12:55:14;;;;;;;33.15;20.52;;;23.00;32.80;;;;;;5033384;28;20649;-85
2021/03/31 12:57:42;;;;;;;25.65;18.38;;;22.80;31.40;;;;;;5015626;28;20590;-85
2021/03/31 13:00:19;;;;;;;28.73;19.27;;;23.10;34.60;;;;;;5033399;28;20176;-85
2021/03/31 13:02:50;;;;;;;28.75;19.02;;;23.30;30.80;;;;;;5033250;28;20180;-86
2021/03/31 13:05:24;;;;;;;26.55;18.15;;;23.10;32.20;;;;;;5033569;28;20173;-85
2021/03/31 13:07:58;;;;;;;28.17;19.60;;;23.20;32.10;;;;;;5015302;28;20692;-85
2021/03/31 13:10:25;;;;;;;31.02;18.40;;;23.40;31.90;;;;;;5015359;28;20180;-85
2021/03/31 13:12:58;;;;;;;27.33;19.13;;;23.70;33.80;;;;;;5032936;28;20173;-85
2021/03/31 13:24:24;;;;;;;33.15;20.73;;;22.90;32.60;;;;;;5033487;28;20153;-85
2021/03/31 13:27:02;;;;;;;33.15;20.83;;;22.80;33.80;;;;;;5033832;28;20189;-86
2021/03/31 13:29:58;;;;;;;29.98;20.30;;;22.80;34.30;;;;;;5015736;28;20652;-84
2021/03/31 13:32:40;;;;;;;31.08;20.58;;;22.80;32.60;;;;;;5032746;28;20177;-84
2021/03/31 13:35:28;;;;;;;35.80;20.77;;;22.70;32.90;;;;;;5032880;28;20699;-86
2021/03/31 13:38:08;;;;;;;29.58;19.60;;;22.70;32.10;;;;;;5015273;28;20196;-85
2021/03/31 13:40:41;;;;;;;29.67;19.27;;;22.70;31.70;;;;;;5033247;28;20251;-86
2021/03/31 13:43:07;;;;;;;28.02;19.30;;;22.50;32.10;;;;;;5015532;28;20231;-85